Pumphrey, Texas
Current Conditions -  °F | °C
As of 2:58 AM on Wednesday 22 Oct 2014 (Local Time) from KDYS Reporting Station
Overcast Overcast  
Wind Chill: 63°   Ceiling: 22000
Heat Index: 63°   Visibility: 10mi
Dew Point: 50°   Wind: 8mph
Humidity: 61%   Direction: 170°S
Pressure: 30.06"   Gusts: NA
Location:  31.975°N, 99.9034°W
Report Text: KDYS 220758Z AUTO 17007KT 10SM OVC220 17/10 A3006 RMK AO2 SLP144 T01740098
Loading
Personal Weather Stations






























Interactive Weather Map
Tropical Storm Tracking
New forecast layout! Learn more

10-Day Weather Forecast

Advertisements
Track Severe Weather on mobile